Time;durP1;ratioP1;P1;durP2;ratioP2;P2;SDS_P1;SDS_P2;PMS_P1;PMS_P2;Temp;Humidity;BMP_temperature;BMP_pressure;BME280_temperature;BME280_humidity;BME280_pressure;Samples;Min_cycle;Max_cycle;Signal;HPM_P1;HPM_P2
2023/04/18 00:00:01;;;;;;;13.65;9.60;;;;;;;8.36;59.97;101187.97;5053150;28;20450;-61
2023/04/18 00:02:28;;;;;;;11.65;10.15;;;;;;;8.37;59.36;101187.69;5053026;28;20445;-61
2023/04/18 00:04:56;;;;;;;12.25;9.38;;;;;;;8.38;60.75;101189.38;5047915;28;20052;-61
2023/04/18 00:07:25;;;;;;;13.05;9.13;;;;;;;8.41;60.93;101194.38;5053017;28;20410;-60
2023/04/18 00:09:53;;;;;;;10.90;9.18;;;;;;;8.41;61.15;101190.78;5052459;28;20402;-61
2023/04/18 00:12:23;;;;;;;10.50;8.40;;;;;;;8.43;61.34;101185.78;5052713;28;20052;-61
2023/04/18 00:14:54;;;;;;;10.70;9.35;;;;;;;8.40;61.39;101181.59;5051096;28;20049;-61
2023/04/18 00:17:21;;;;;;;11.00;8.85;;;;;;;8.42;62.64;101184.09;5052795;28;20064;-61
2023/04/18 00:19:50;;;;;;;10.93;9.00;;;;;;;8.46;62.08;101183.28;5047792;28;20121;-61
2023/04/18 00:22:21;;;;;;;11.85;8.57;;;;;;;8.44;62.04;101185.50;5052936;28;20060;-61
2023/04/18 00:24:50;;;;;;;12.63;8.95;;;;;;;8.44;62.56;101177.19;5052697;28;20067;-61
2023/04/18 00:27:18;;;;;;;11.23;8.98;;;;;;;8.46;61.94;101180.50;5052249;28;20052;-62
2023/04/18 00:29:48;;;;;;;12.25;8.45;;;;;;;8.44;63.61;101188.28;5052285;28;20060;-62
2023/04/18 00:32:16;;;;;;;11.55;8.90;;;;;;;8.47;62.74;101184.94;5052423;28;20414;-62
2023/04/18 00:34:44;;;;;;;11.23;9.20;;;;;;;8.46;62.57;101191.59;5045159;28;20049;-62
2023/04/18 00:37:13;;;;;;;10.60;8.98;;;;;;;8.45;63.56;101189.09;5032547;28;20049;-62
2023/04/18 00:39:41;;;;;;;11.93;9.52;;;;;;;8.41;63.34;101186.06;5032892;28;20391;-60
2023/04/18 00:42:10;;;;;;;11.57;9.85;;;;;;;8.40;63.46;101187.16;5032476;28;20053;-60
2023/04/18 00:44:37;;;;;;;11.60;9.00;;;;;;;8.37;64.21;101187.69;5032552;28;20056;-61
2023/04/18 00:47:05;;;;;;;11.82;9.30;;;;;;;8.29;64.58;101182.72;5032698;28;20467;-61
2023/04/18 00:49:33;;;;;;;10.43;8.77;;;;;;;8.31;64.46;101183.28;5034615;28;20054;-61
2023/04/18 00:52:00;;;;;;;11.02;8.85;;;;;;;8.28;64.72;101183.84;5033262;28;20060;-61
2023/04/18 00:54:31;;;;;;;12.48;10.10;;;;;;;8.28;64.63;101183.84;5036581;28;20068;-61
2023/04/18 00:56:58;;;;;;;12.55;8.98;;;;;;;8.25;64.29;101187.16;5036697;28;20395;-61
2023/04/18 00:59:30;;;;;;;10.23;8.90;;;;;;;8.27;64.79;101187.72;5036358;28;20045;-61
2023/04/18 01:01:57;;;;;;;10.73;8.90;;;;;;;8.27;64.91;101184.94;5036320;28;20053;-61
2023/04/18 01:04:25;;;;;;;9.57;8.30;;;;;;;8.27;64.64;101191.34;5038254;28;20474;-61
2023/04/18 01:06:53;;;;;;;9.60;8.23;;;;;;;8.28;64.13;101189.41;5036645;28;20486;-61
2023/04/18 01:09:21;;;;;;;10.18;8.23;;;;;;;8.31;64.31;101194.38;5036279;28;20065;-61
2023/04/18 01:11:51;;;;;;;12.85;8.65;;;;;;;8.33;64.16;101184.66;5036262;28;20060;-61
2023/04/18 01:14:19;;;;;;;;;;;;;;;8.37;64.77;101181.31;5036500;28;20056;-62
2023/04/18 01:16:48;;;;;;;9.95;8.70;;;;;;;8.36;64.21;101183.28;5047359;28;19920;-61
2023/04/18 01:19:17;;;;;;;10.32;8.13;;;;;;;8.40;63.93;101180.75;5052324;28;20056;-61
2023/04/18 01:21:44;;;;;;;10.32;8.85;;;;;;;8.40;64.98;101178.81;5056298;28;20482;-61
2023/04/18 01:24:15;;;;;;;10.18;8.55;;;;;;;8.36;63.88;101174.94;5055864;28;20045;-61
2023/04/18 01:26:46;;;;;;;11.18;8.73;;;;;;;8.38;64.73;101172.72;5056268;28;20053;-61
2023/04/18 01:29:14;;;;;;;9.63;8.07;;;;;;;8.41;64.32;101177.72;5056188;28;20064;-61
2023/04/18 01:31:42;;;;;;;9.93;7.97;;;;;;;8.34;65.00;101172.44;5055597;28;20413;-61
2023/04/18 01:34:19;;;;;;;10.25;8.10;;;;;;;8.44;65.01;101173.53;5050295;28;20054;-61
2023/04/18 01:36:47;;;;;;;11.90;8.43;;;;;;;8.42;64.21;101164.66;5035607;28;20057;-61
2023/04/18 01:39:17;;;;;;;12.57;9.02;;;;;;;8.42;65.16;101171.06;5035609;28;20053;-61
2023/04/18 01:41:44;;;;;;;10.63;8.05;;;;;;;8.49;64.13;101173.53;5035427;28;20053;-61
2023/04/18 01:44:14;;;;;;;9.07;7.95;;;;;;;8.51;63.52;101172.16;5035413;28;20056;-61
2023/04/18 01:46:44;;;;;;;9.38;8.15;;;;;;;8.49;64.04;101165.22;5035513;28;20060;-61
2023/04/18 01:49:11;;;;;;;10.80;8.80;;;;;;;8.47;64.85;101165.50;5049110;28;20052;-61
2023/04/18 01:51:39;;;;;;;10.05;8.40;;;;;;;8.47;64.57;101168.28;5055655;28;20446;-61
2023/04/18 01:54:07;;;;;;;9.50;8.50;;;;;;;8.47;64.38;101170.22;5055182;28;20045;-61
2023/04/18 01:56:36;;;;;;;10.73;8.13;;;;;;;8.47;64.50;101165.50;5055068;28;20080;-63
2023/04/18 01:59:04;;;;;;;9.45;8.13;;;;;;;8.43;64.53;101169.94;5055442;28;20048;-61
2023/04/18 02:01:31;;;;;;;10.93;8.52;;;;;;;8.41;65.11;101161.06;5055079;28;20057;-61
2023/04/18 02:03:59;;;;;;;9.35;8.07;;;;;;;8.42;64.56;101167.44;5050708;28;20052;-62
2023/04/18 02:06:26;;;;;;;10.43;7.72;;;;;;;8.41;63.91;101160.25;5052880;28;20053;-61
2023/04/18 02:08:54;;;;;;;10.65;8.70;;;;;;;8.43;63.69;101163.56;5054943;28;20516;-61
2023/04/18 02:11:21;;;;;;;8.98;7.78;;;;;;;8.44;64.71;101166.06;5054854;28;20060;-61
2023/04/18 02:13:50;;;;;;;9.77;8.30;;;;;;;8.40;64.56;101170.50;5054919;28;20057;-61
2023/04/18 02:16:18;;;;;;;9.20;7.60;;;;;;;8.39;65.14;101166.03;5055114;28;20053;-61
2023/04/18 02:18:46;;;;;;;10.82;8.07;;;;;;;8.44;64.30;101159.66;5052374;28;20053;-61
2023/04/18 02:21:13;;;;;;;10.00;8.45;;;;;;;8.52;64.54;101164.63;5035295;28;20064;-61
2023/04/18 02:23:43;;;;;;;10.68;7.95;;;;;;;8.58;65.24;101165.47;5034605;28;20049;-61
2023/04/18 02:26:11;;;;;;;9.20;7.45;;;;;;;8.66;64.75;101167.66;5034947;28;20068;-61
2023/04/18 02:28:38;;;;;;;8.70;7.80;;;;;;;8.74;64.07;101158.72;5034985;28;20053;-61
2023/04/18 02:31:13;;;;;;;10.15;8.07;;;;;;;8.78;64.25;101156.19;5034553;28;20443;-61
2023/04/18 02:33:41;;;;;;;9.93;7.45;;;;;;;8.85;63.90;101156.72;5035948;28;20060;-61
2023/04/18 02:36:09;;;;;;;9.45;8.18;;;;;;;8.92;64.17;101146.97;5039940;28;20045;-61
2023/04/18 02:38:41;;;;;;;9.10;7.70;;;;;;;8.99;63.40;101152.19;5051596;28;20056;-61
2023/04/18 02:41:13;;;;;;;9.70;7.78;;;;;;;9.06;64.21;101155.47;5055132;28;20494;-61
2023/04/18 02:43:45;;;;;;;10.43;7.90;;;;;;;9.08;63.72;101158.81;5054558;28;20462;-61
2023/04/18 02:46:16;;;;;;;10.07;7.68;;;;;;;9.12;62.83;101156.28;5054472;28;20053;-61
2023/04/18 02:48:46;;;;;;;8.98;7.57;;;;;;;9.10;62.94;101153.78;5051758;28;20611;-61
2023/04/18 02:51:16;;;;;;;8.50;7.38;;;;;;;9.10;63.00;101159.34;5053419;28;20048;-61
2023/04/18 02:53:43;;;;;;;;;;;;;;;9.10;63.97;101161.31;5055504;28;20056;-57
2023/04/18 02:56:11;;;;;;;10.93;7.95;;;;;;;9.09;63.47;101165.19;5054099;28;20278;-57
2023/04/18 02:58:39;;;;;;;8.45;7.10;;;;;;;9.13;63.81;101158.78;5054552;28;20079;-58
2023/04/18 03:01:06;;;;;;;9.18;7.38;;;;;;;9.20;62.47;101160.38;5054187;28;20053;-57
2023/04/18 03:03:35;;;;;;;9.82;7.88;;;;;;;9.24;61.92;101162.31;5050713;28;20517;-58
2023/04/18 03:06:03;;;;;;;8.05;6.65;;;;;;;9.31;63.15;101162.00;5052049;28;20056;-57
2023/04/18 03:08:31;;;;;;;8.63;6.18;;;;;;;9.37;62.18;101157.22;5054411;28;20060;-57
2023/04/18 03:10:58;;;;;;;7.22;6.35;;;;;;;9.38;62.14;101167.22;5053771;28;20057;-58
2023/04/18 03:13:26;;;;;;;7.43;6.53;;;;;;;9.40;62.49;101163.03;5054044;28;20053;-57
2023/04/18 03:15:54;;;;;;;7.35;6.30;;;;;;;9.43;62.51;101164.38;5053307;28;20351;-58
2023/04/18 03:18:23;;;;;;;7.40;6.38;;;;;;;9.40;61.93;101168.59;5053632;28;20433;-57
2023/04/18 03:20:52;;;;;;;8.85;6.57;;;;;;;9.37;60.86;101169.19;5050327;28;20057;-57
2023/04/18 03:23:19;;;;;;;7.55;5.95;;;;;;;9.35;62.04;101169.47;5053964;28;20052;-58
2023/04/18 03:25:47;;;;;;;7.63;6.53;;;;;;;9.32;62.29;101181.19;5053591;28;20386;-57
2023/04/18 03:28:14;;;;;;;8.82;6.60;;;;;;;9.27;61.22;101180.38;5053383;28;20060;-58
2023/04/18 03:30:44;;;;;;;8.93;6.65;;;;;;;9.23;61.17;101176.50;5050129;28;20052;-58
2023/04/18 03:33:13;;;;;;;10.07;6.38;;;;;;;9.16;61.84;101168.50;5053325;28;20056;-57
2023/04/18 03:35:40;;;;;;;9.95;6.30;;;;;;;9.13;62.30;101177.38;5037264;28;20049;-57
2023/04/18 03:38:09;;;;;;;7.30;6.55;;;;;;;9.09;61.38;101171.59;5033478;28;20402;-57
2023/04/18 03:40:36;;;;;;;7.75;6.80;;;;;;;9.10;61.24;101181.56;5033050;28;20402;-58
2023/04/18 03:43:03;;;;;;;8.88;6.60;;;;;;;9.10;61.32;101173.25;5040227;28;20060;-57
2023/04/18 03:45:31;;;;;;;7.18;6.32;;;;;;;9.11;62.46;101176.84;5053278;28;20053;-57
2023/04/18 03:47:58;;;;;;;7.63;6.70;;;;;;;9.13;61.04;101177.38;5052834;28;20171;-57
2023/04/18 03:50:25;;;;;;;7.43;6.47;;;;;;;9.14;62.35;101174.31;5049650;28;20053;-57
2023/04/18 03:52:52;;;;;;;7.32;6.30;;;;;;;9.08;61.25;101180.22;5046804;28;20060;-61
2023/04/18 03:55:21;;;;;;;8.80;6.07;;;;;;;9.12;62.16;101184.06;5052611;28;20478;-61
2023/04/18 03:57:48;;;;;;;7.68;6.30;;;;;;;9.14;61.01;101185.44;5053460;28;20466;-61
2023/04/18 04:00:16;;;;;;;6.97;6.07;;;;;;;9.15;61.07;101183.50;5053187;28;20060;-61
2023/04/18 04:02:44;;;;;;;7.70;6.80;;;;;;;9.23;60.88;101185.66;5040935;28;20449;-61
2023/04/18 04:05:11;;;;;;;8.07;6.60;;;;;;;9.22;60.53;101178.47;5036766;28;20057;-61
2023/04/18 04:07:38;;;;;;;6.28;5.68;;;;;;;9.22;61.54;101181.25;5047253;28;20076;-61
2023/04/18 04:10:06;;;;;;;7.70;6.63;;;;;;;9.26;61.47;101185.09;5042887;28;21554;-61
2023/04/18 04:12:35;;;;;;;7.05;6.18;;;;;;;9.28;60.46;101184.78;5039993;28;20469;-61
2023/04/18 04:15:03;;;;;;;7.00;6.30;;;;;;;9.35;60.69;101186.13;5032254;28;20092;-61
2023/04/18 04:17:30;;;;;;;7.63;6.68;;;;;;;9.40;60.10;101190.81;5032697;28;20049;-61
2023/04/18 04:19:57;;;;;;;8.40;6.35;;;;;;;9.47;60.37;101191.34;5031780;28;20420;-61
2023/04/18 04:22:25;;;;;;;7.13;6.22;;;;;;;9.50;61.38;101192.72;5032950;28;20072;-61
2023/04/18 04:24:52;;;;;;;9.15;7.28;;;;;;;9.54;60.38;101194.63;5032304;28;20057;-61
2023/04/18 04:27:20;;;;;;;11.23;7.00;;;;;;;9.52;60.81;101201.59;5031615;28;20057;-61
2023/04/18 04:29:48;;;;;;;7.90;7.03;;;;;;;9.61;60.88;101205.41;5033676;28;20053;-62
2023/04/18 04:32:16;;;;;;;8.40;6.50;;;;;;;9.63;60.91;101208.75;5034437;28;20159;-61
2023/04/18 04:34:45;;;;;;;8.30;7.38;;;;;;;9.70;60.71;101208.41;5031730;28;20060;-61
2023/04/18 04:37:12;;;;;;;8.57;6.90;;;;;;;9.69;60.02;101207.56;5031165;28;20057;-61
2023/04/18 04:39:40;;;;;;;8.27;6.90;;;;;;;9.63;59.52;101208.75;5033496;28;20063;-61
2023/04/18 04:42:08;;;;;;;7.68;6.88;;;;;;;9.66;59.60;101201.75;5038485;28;20058;-61
2023/04/18 04:44:36;;;;;;;9.60;7.38;;;;;;;9.64;60.24;101204.84;5034368;28;20049;-61
2023/04/18 04:47:04;;;;;;;8.50;7.60;;;;;;;9.65;60.45;101209.28;5036121;28;20041;-61
2023/04/18 04:49:32;;;;;;;7.90;7.00;;;;;;;9.67;60.98;101209.81;5043937;28;20409;-62
2023/04/18 04:51:59;;;;;;;7.95;7.15;;;;;;;9.65;60.70;101206.50;5040415;28;20057;-62
2023/04/18 04:54:26;;;;;;;7.55;6.68;;;;;;;9.62;60.62;101217.41;5037904;28;20053;-62
2023/04/18 04:56:54;;;;;;;7.68;6.88;;;;;;;9.62;60.87;101209.88;5052023;28;20470;-62
2023/04/18 04:59:21;;;;;;;8.52;7.63;;;;;;;9.58;60.50;101213.53;5052463;28;20401;-61
2023/04/18 05:01:48;;;;;;;9.50;7.85;;;;;;;9.49;60.39;101211.38;5052143;28;20053;-61
2023/04/18 05:04:17;;;;;;;11.18;8.70;;;;;;;9.43;59.78;101208.88;5049682;28;20417;-61
2023/04/18 05:06:45;;;;;;;9.23;8.20;;;;;;;9.41;60.35;101216.69;5050458;28;20049;-61
2023/04/18 05:09:13;;;;;;;8.85;7.68;;;;;;;9.45;61.30;101212.19;5051681;28;20056;-61
2023/04/18 05:11:40;;;;;;;8.50;7.60;;;;;;;9.45;61.20;101215.84;5051112;28;20072;-62
2023/04/18 05:14:07;;;;;;;10.10;8.27;;;;;;;9.50;59.97;101221.34;5051580;28;20060;-62
2023/04/18 05:16:35;;;;;;;9.45;8.15;;;;;;;9.53;59.62;101219.94;5051656;28;20057;-62
2023/04/18 05:19:02;;;;;;;9.10;8.20;;;;;;;9.61;60.37;101219.31;5052013;28;20064;-62
2023/04/18 05:21:31;;;;;;;9.35;8.25;;;;;;;9.67;60.85;101217.34;5047158;28;20442;-62
2023/04/18 05:23:59;;;;;;;10.23;8.13;;;;;;;9.79;60.71;101220.59;5052029;28;20485;-62
2023/04/18 05:26:26;;;;;;;9.70;8.70;;;;;;;9.89;60.42;101222.44;5048001;28;20049;-62
2023/04/18 05:28:53;;;;;;;10.65;9.00;;;;;;;10.00;59.78;101221.25;5032643;28;20065;-62
2023/04/18 05:31:21;;;;;;;9.48;8.48;;;;;;;10.07;58.91;101224.50;5037218;28;20060;-62
2023/04/18 05:33:48;;;;;;;10.95;8.50;;;;;;;10.08;59.95;101231.75;5038936;28;20045;-62
2023/04/18 05:36:16;;;;;;;10.18;8.68;;;;;;;10.17;58.61;101234.72;5035321;28;20379;-62
2023/04/18 05:38:44;;;;;;;9.50;8.50;;;;;;;10.11;58.74;101233.09;5034275;28;20069;-62
2023/04/18 05:41:12;;;;;;;9.85;8.85;;;;;;;10.14;58.43;101241.72;5037679;28;20063;-62
2023/04/18 05:43:39;;;;;;;10.57;9.45;;;;;;;10.20;59.14;101236.09;5034724;28;20063;-61
2023/04/18 05:46:07;;;;;;;10.18;9.15;;;;;;;10.23;59.41;101232.72;5037830;28;20060;-62
2023/04/18 05:48:35;;;;;;;11.07;9.57;;;;;;;10.30;58.40;101241.59;5048931;28;20052;-62
2023/04/18 05:51:02;;;;;;;11.25;9.70;;;;;;;10.36;58.55;101243.19;5051738;28;20049;-62
2023/04/18 05:53:29;;;;;;;12.07;10.88;;;;;;;10.35;58.84;101241.53;5055005;28;20053;-62
2023/04/18 05:55:58;;;;;;;10.48;9.40;;;;;;;10.35;58.28;101245.16;5054470;28;20380;-62
2023/04/18 05:58:27;;;;;;;10.32;9.27;;;;;;;10.32;59.04;101247.69;5054663;28;20049;-61
2023/04/18 06:00:54;;;;;;;12.13;10.13;;;;;;;10.27;58.41;101244.94;5054836;28;20060;-62
2023/04/18 06:03:22;;;;;;;10.95;9.85;;;;;;;10.22;58.88;101242.19;5054440;28;20071;-62
2023/04/18 06:05:49;;;;;;;10.77;9.35;;;;;;;10.29;58.31;101256.59;5051021;28;20044;-62
2023/04/18 06:08:16;;;;;;;11.13;8.98;;;;;;;10.26;58.14;101251.63;5054899;28;20057;-61
2023/04/18 06:10:43;;;;;;;12.80;9.80;;;;;;;10.21;59.35;101254.47;5054424;28;20052;-61
2023/04/18 06:13:12;;;;;;;12.15;9.70;;;;;;;10.30;59.13;101259.13;5054946;28;20494;-62
2023/04/18 06:15:40;;;;;;;10.55;9.50;;;;;;;10.43;59.20;101254.00;5042462;28;20056;-62
2023/04/18 06:18:07;;;;;;;10.95;9.82;;;;;;;10.60;59.02;101262.72;5046374;28;20051;-62
2023/04/18 06:20:35;;;;;;;11.15;9.73;;;;;;;10.67;58.31;101259.59;5039994;28;20064;-62
2023/04/18 06:23:02;;;;;;;11.43;9.52;;;;;;;10.72;58.33;101263.13;5035193;28;20080;-62
2023/04/18 06:25:29;;;;;;;14.25;10.75;;;;;;;10.82;58.77;101267.78;5046511;28;20508;-62
2023/04/18 06:27:56;;;;;;;11.23;10.05;;;;;;;10.90;58.00;101267.13;5047333;28;20045;-62
2023/04/18 06:30:25;;;;;;;12.80;10.85;;;;;;;10.93;57.88;101272.09;5039043;28;20733;-62
2023/04/18 06:32:52;;;;;;;11.97;10.53;;;;;;;10.97;57.94;101270.38;5034577;28;20501;-62
2023/04/18 06:35:20;;;;;;;11.43;10.23;;;;;;;11.08;58.01;101267.44;5039895;28;20053;-61
2023/04/18 06:37:47;;;;;;;11.35;10.15;;;;;;;11.16;57.98;101267.63;5033103;28;20050;-61
2023/04/18 06:40:14;;;;;;;12.35;10.20;;;;;;;11.24;57.82;101262.53;5038219;28;20056;-62
2023/04/18 06:42:42;;;;;;;11.50;10.25;;;;;;;11.21;57.39;101269.50;5040996;28;20045;-62
2023/04/18 06:45:10;;;;;;;13.07;10.40;;;;;;;11.27;57.46;101276.66;5037079;28;20494;-62
2023/04/18 06:47:40;;;;;;;11.07;9.80;;;;;;;11.40;57.23;101277.88;5041841;28;20044;-61
2023/04/18 06:50:08;;;;;;;11.73;9.50;;;;;;;11.45;57.07;101282.59;5035396;28;20056;-61
2023/04/18 06:52:39;;;;;;;11.55;10.35;;;;;;;11.35;57.33;101275.19;5032682;28;20053;-61
2023/04/18 06:55:08;;;;;;;12.45;10.80;;;;;;;11.41;57.30;101281.53;5037453;28;20057;-61
2023/04/18 06:57:35;;;;;;;11.48;10.00;;;;;;;11.42;57.30;101281.22;5037450;28;20149;-61
2023/04/18 07:00:03;;;;;;;12.55;10.65;;;;;;;11.52;57.11;101269.91;5037972;28;20061;-61
2023/04/18 07:02:31;;;;;;;11.48;10.10;;;;;;;11.54;57.00;101272.41;5042697;28;20045;-61
2023/04/18 07:05:00;;;;;;;11.98;10.65;;;;;;;11.60;56.90;101271.19;5045354;28;20064;-62
2023/04/18 07:07:27;;;;;;;11.30;10.07;;;;;;;11.61;57.07;101281.22;5035167;28;20410;-61
2023/04/18 07:09:55;;;;;;;12.95;11.07;;;;;;;11.70;56.73;101276.63;5033532;28;20060;-61
2023/04/18 07:12:22;;;;;;;12.02;10.73;;;;;;;11.88;56.76;101274.13;5035189;28;20063;-61
2023/04/18 07:14:50;;;;;;;12.18;10.40;;;;;;;11.90;56.25;101274.69;5035865;28;20050;-61
2023/04/18 07:17:18;;;;;;;11.65;10.25;;;;;;;11.98;56.45;101274.00;5046770;28;20053;-61
2023/04/18 07:19:45;;;;;;;13.70;10.88;;;;;;;12.06;55.83;101278.88;5040064;28;20404;-61
2023/04/18 07:22:14;;;;;;;11.68;10.02;;;;;;;12.15;56.30;101276.22;5042336;28;20052;-62
2023/04/18 07:24:41;;;;;;;12.23;10.10;;;;;;;12.17;56.03;101283.16;5039316;28;20049;-61
2023/04/18 07:27:09;;;;;;;12.68;10.73;;;;;;;12.16;55.77;101283.47;5033684;28;20053;-61
2023/04/18 07:29:36;;;;;;;12.30;10.55;;;;;;;12.19;56.04;101278.09;5042780;28;20075;-61
2023/04/18 07:32:03;;;;;;;12.60;10.95;;;;;;;12.18;55.78;101279.25;5034819;28;20067;-61
2023/04/18 07:34:32;;;;;;;13.18;9.85;;;;;;;12.10;55.49;101282.72;5039947;28;20402;-61
2023/04/18 07:36:59;;;;;;;13.47;11.03;;;;;;;12.00;56.32;101282.06;5033056;28;20056;-61
2023/04/18 07:39:30;;;;;;;12.45;10.82;;;;;;;11.93;56.50;101283.28;5031670;28;20053;-61
2023/04/18 07:41:58;;;;;;;12.18;10.23;;;;;;;11.98;56.10;101285.16;5037570;28;20061;-61
2023/04/18 07:44:25;;;;;;;14.18;10.90;;;;;;;11.85;56.84;101283.13;5033186;28;20049;-61
2023/04/18 07:46:52;;;;;;;14.25;12.13;;;;;;;11.89;56.38;101282.22;5038754;28;20054;-61
2023/04/18 07:49:20;;;;;;;13.25;11.07;;;;;;;11.89;56.53;101290.59;5032537;28;20048;-61
2023/04/18 07:51:47;;;;;;;14.63;11.27;;;;;;;11.93;56.40;101288.88;5039185;28;20053;-61
2023/04/18 07:54:14;;;;;;;14.48;11.68;;;;;;;11.89;56.53;101290.59;5039657;28;20051;-61
2023/04/18 07:56:43;;;;;;;12.70;11.30;;;;;;;11.90;57.03;101289.47;5052993;28;20387;-61
2023/04/18 07:59:11;;;;;;;13.18;11.15;;;;;;;11.88;57.23;101294.50;5034388;28;20053;-61
2023/04/18 08:01:39;;;;;;;14.65;11.57;;;;;;;11.94;56.81;101296.09;5040154;28;20049;-61
2023/04/18 08:04:06;;;;;;;12.50;10.32;;;;;;;11.84;57.06;101295.41;5051512;28;20060;-61
2023/04/18 08:06:34;;;;;;;13.38;10.52;;;;;;;11.93;56.67;101302.81;5047975;28;20129;-61
2023/04/18 08:09:04;;;;;;;13.73;11.43;;;;;;;11.77;57.10;101307.78;5053388;28;20053;-61
2023/04/18 08:11:31;;;;;;;;;;;;;;;11.69;56.98;101311.25;5053039;28;20060;-61
2023/04/18 08:14:00;;;;;;;14.88;10.90;;;;;;;11.71;57.44;101302.56;5034176;28;19920;-61
2023/04/18 08:16:27;;;;;;;12.25;9.93;;;;;;;11.75;57.11;101310.03;5032533;28;20057;-61
2023/04/18 08:18:54;;;;;;;13.43;10.35;;;;;;;11.75;57.12;101298.88;5039225;28;20052;-61
2023/04/18 08:21:22;;;;;;;13.48;10.93;;;;;;;11.70;57.58;101315.69;5047656;28;20142;-61
2023/04/18 08:23:49;;;;;;;13.35;10.35;;;;;;;11.84;57.25;101307.38;5051489;28;20053;-62
2023/04/18 08:26:16;;;;;;;15.13;10.35;;;;;;;11.84;57.48;101312.16;5052625;28;20401;-61
2023/04/18 08:28:43;;;;;;;16.52;11.07;;;;;;;11.76;57.44;101313.69;5052499;28;20101;-61
2023/04/18 08:31:13;;;;;;;14.00;11.40;;;;;;;11.88;57.39;101313.19;5049022;28;20686;-61
2023/04/18 08:33:41;;;;;;;13.93;10.60;;;;;;;11.92;57.40;101311.50;5032116;28;20057;-61
2023/04/18 08:36:10;;;;;;;13.27;11.15;;;;;;;11.85;57.29;101305.44;5050620;28;20060;-61
2023/04/18 08:38:37;;;;;;;13.18;10.75;;;;;;;11.77;57.59;101310.56;5052200;28;20060;-61
2023/04/18 08:41:05;;;;;;;14.35;11.65;;;;;;;11.66;57.89;101311.84;5051444;28;20048;-61
2023/04/18 08:43:32;;;;;;;13.85;11.05;;;;;;;11.70;58.23;101314.88;5052013;28;20061;-61
2023/04/18 08:46:00;;;;;;;14.75;11.63;;;;;;;11.75;57.71;101320.38;5052385;28;20056;-62
2023/04/18 08:48:29;;;;;;;13.82;11.40;;;;;;;11.63;58.66;101322.78;5050889;28;20366;-61
2023/04/18 08:50:58;;;;;;;14.65;11.43;;;;;;;11.69;58.52;101324.38;5039832;28;20056;-61
2023/04/18 08:53:26;;;;;;;13.87;11.60;;;;;;;11.73;58.45;101323.47;5036996;28;20410;-61
2023/04/18 08:55:55;;;;;;;14.98;11.13;;;;;;;11.82;58.19;101318.03;5040475;28;20099;-61
2023/04/18 08:58:23;;;;;;;14.93;11.55;;;;;;;11.68;58.59;101323.53;5029880;28;20057;-61
2023/04/18 09:00:51;;;;;;;13.48;11.90;;;;;;;11.64;58.58;101322.50;5028883;28;20049;-61
2023/04/18 09:03:38;;;;;;;14.68;12.15;;;;;;;11.78;58.58;101328.97;5039953;28;20080;-62
2023/04/18 09:06:11;;;;;;;16.33;12.23;;;;;;;11.75;58.28;101324.00;5037109;28;20057;-61
2023/04/18 09:08:38;;;;;;;16.48;12.18;;;;;;;11.71;58.62;101328.50;5033747;28;20057;-61
2023/04/18 09:11:27;;;;;;;16.73;12.98;;;;;;;11.83;58.47;101330.88;5031616;28;20399;-61
2023/04/18 09:13:57;;;;;;;15.75;12.13;;;;;;;12.04;58.11;101322.22;5034416;28;20053;-61
2023/04/18 09:16:26;;;;;;;16.95;12.82;;;;;;;12.06;57.89;101328.31;5036660;28;20490;-61
2023/04/18 09:19:12;;;;;;;18.15;12.98;;;;;;;12.06;57.32;101329.16;5036034;28;20041;-61
2023/04/18 09:21:41;;;;;;;16.20;12.40;;;;;;;12.19;57.19;101331.16;5045224;28;20053;-61
2023/04/18 09:24:19;;;;;;;15.45;12.60;;;;;;;12.34;57.88;101329.25;5055883;28;20508;-62
2023/04/18 09:26:48;;;;;;;13.95;12.13;;;;;;;12.56;57.15;101321.03;5055620;28;20053;-61
2023/04/18 09:29:17;;;;;;;15.95;12.25;;;;;;;12.73;56.94;101328.84;5055852;28;20060;-61
2023/04/18 09:31:56;;;;;;;15.43;12.25;;;;;;;12.84;56.24;101323.88;5054714;28;20513;-62
2023/04/18 09:34:25;;;;;;;16.03;12.73;;;;;;;12.95;56.08;101324.50;5055957;28;20056;-62
2023/04/18 09:37:08;;;;;;;15.73;12.90;;;;;;;13.11;55.21;101325.88;5053688;28;20075;-62
2023/04/18 09:39:37;;;;;;;15.23;11.18;;;;;;;13.31;55.58;101324.66;5040314;28;20513;-62
2023/04/18 09:42:04;;;;;;;;;;;;;;;13.48;54.97;101315.63;5036543;28;20050;-62
2023/04/18 09:44:32;;;;;;;16.17;11.93;;;;;;;13.61;54.45;101327.94;5045400;28;20369;-62
2023/04/18 09:47:00;;;;;;;16.05;11.93;;;;;;;13.42;55.15;101325.28;5055650;28;20064;-62
2023/04/18 09:49:29;;;;;;;17.00;12.45;;;;;;;13.68;54.94;101322.72;5046817;28;20056;-62
2023/04/18 09:51:56;;;;;;;16.07;12.50;;;;;;;13.75;53.91;101317.53;5045761;28;20057;-62
2023/04/18 09:54:25;;;;;;;16.15;11.38;;;;;;;13.74;53.76;101310.25;5055834;28;20478;-62
2023/04/18 09:56:54;;;;;;;15.32;11.63;;;;;;;14.00;54.38;101313.28;5055454;28;20059;-62
2023/04/18 09:59:33;;;;;;;13.57;12.18;;;;;;;14.20;52.75;101311.13;5055090;28;20060;-62
2023/04/18 10:02:02;;;;;;;15.23;12.40;;;;;;;14.42;52.07;101304.69;5051599;28;20053;-62
2023/04/18 10:04:32;;;;;;;14.43;11.48;;;;;;;14.64;52.20;101311.47;5035607;28;20060;-62
2023/04/18 10:07:00;;;;;;;15.98;12.38;;;;;;;14.85;50.88;101309.75;5048609;28;20053;-62
2023/04/18 10:09:32;;;;;;;15.48;12.50;;;;;;;14.92;51.63;101309.28;5054723;28;20378;-62
2023/04/18 10:12:01;;;;;;;14.02;12.00;;;;;;;14.96;50.94;101305.50;5054625;28;20520;-62
2023/04/18 10:14:30;;;;;;;13.43;11.77;;;;;;;15.07;50.66;101305.19;5048980;28;20053;-62
2023/04/18 10:16:59;;;;;;;14.48;11.70;;;;;;;15.15;49.91;101296.00;5036135;28;20049;-62
2023/04/18 10:19:30;;;;;;;15.98;13.15;;;;;;;15.38;49.66;101310.75;5034840;28;20418;-62
2023/04/18 10:21:59;;;;;;;14.38;11.27;;;;;;;15.54;49.37;101291.44;5036151;28;20053;-62
2023/04/18 10:24:45;;;;;;;13.65;10.65;;;;;;;15.80;48.73;101294.31;5035143;28;20413;-62
2023/04/18 10:27:13;;;;;;;12.40;11.10;;;;;;;16.16;48.16;101285.53;5050608;28;20497;-62
2023/04/18 10:29:47;;;;;;;13.68;10.90;;;;;;;16.56;47.32;101292.91;5048466;28;20052;-62
2023/04/18 10:32:15;;;;;;;13.88;11.43;;;;;;;16.76;47.26;101285.75;5050989;28;20406;-62
2023/04/18 10:34:45;;;;;;;12.95;11.30;;;;;;;16.97;47.00;101277.41;5045209;28;20049;-62
2023/04/18 10:37:12;;;;;;;12.27;10.57;;;;;;;17.48;46.17;101283.91;5037835;28;20053;-62
2023/04/18 10:39:55;;;;;;;12.25;10.77;;;;;;;17.64;45.67;101282.13;5042493;28;20045;-62
2023/04/18 10:42:56;;;;;;;13.55;10.38;;;;;;;17.56;45.33;101273.75;5049484;28;20056;-61
2023/04/18 10:45:24;;;;;;;16.08;12.70;;;;;;;17.84;44.38;101277.69;5041526;28;20132;-61
2023/04/18 10:48:24;;;;;;;13.85;12.05;;;;;;;18.09;44.12;101277.00;5038602;28;20053;-60
2023/04/18 10:51:15;;;;;;;13.93;11.75;;;;;;;18.00;43.72;101277.06;5047267;28;20061;-62
2023/04/18 10:53:50;;;;;;;12.35;10.85;;;;;;;17.92;44.46;101277.97;5034447;28;20058;-62
2023/04/18 10:56:17;;;;;;;12.43;10.95;;;;;;;17.84;44.21;101276.88;5034115;28;20056;-62
2023/04/18 10:58:50;;;;;;;12.65;10.80;;;;;;;17.97;44.15;101267.28;5034598;28;20053;-62
2023/04/18 11:01:26;;;;;;;14.82;10.73;;;;;;;18.13;43.54;101278.75;5034657;28;20053;-62
2023/04/18 11:03:55;;;;;;;12.23;10.75;;;;;;;17.90;43.92;101271.84;5034190;28;20057;-62
2023/04/18 11:06:25;;;;;;;13.90;11.95;;;;;;;17.91;43.66;101267.84;5045000;28;20064;-63
2023/04/18 11:08:53;;;;;;;12.52;10.60;;;;;;;18.09;43.52;101272.16;5052378;28;20056;-63
2023/04/18 11:11:21;;;;;;;13.48;11.65;;;;;;;18.81;41.77;101271.91;5049281;28;20055;-62
2023/04/18 11:13:58;;;;;;;15.15;12.00;;;;;;;18.77;41.84;101265.28;5053380;28;20058;-62
2023/04/18 11:16:26;;;;;;;12.25;10.82;;;;;;;18.83;42.64;101266.75;5053896;28;20139;-63
2023/04/18 11:18:54;;;;;;;12.30;11.00;;;;;;;18.91;41.70;101262.16;5053774;28;20060;-63
2023/04/18 11:21:27;;;;;;;14.60;11.20;;;;;;;19.14;41.94;101262.53;5041456;28;20473;-62
2023/04/18 11:23:56;;;;;;;12.63;11.25;;;;;;;19.50;41.79;101261.66;5050895;28;20045;-63
2023/04/18 11:26:27;;;;;;;12.48;11.18;;;;;;;20.05;40.34;101256.44;5053317;28;20053;-61
2023/04/18 11:28:57;;;;;;;12.48;11.18;;;;;;;21.11;38.43;101250.38;5053614;28;20053;-61